createdAt,value
2022-11-06T00:00:01.804Z,38.80
2022-11-06T00:02:28.881Z,34.50
2022-11-06T00:05:16.106Z,36.60
2022-11-06T00:07:46.562Z,73.90
2022-11-06T00:10:14.862Z,44.70
2022-11-06T00:12:42.025Z,86.10
2022-11-06T00:15:10.378Z,92.70
2022-11-06T00:17:37.458Z,100.70
2022-11-06T00:20:06.251Z,75.70
2022-11-06T00:22:34.365Z,69.80
2022-11-06T00:25:01.427Z,56.70
2022-11-06T00:27:28.775Z,34.40
2022-11-06T00:29:55.795Z,50.50
2022-11-06T00:32:23.003Z,34.50
2022-11-06T00:34:51.044Z,32.30
2022-11-06T00:37:18.007Z,39.50
2022-11-06T00:39:45.763Z,36.50
2022-11-06T00:42:12.801Z,26.00
2022-11-06T00:44:39.836Z,23.10
2022-11-06T00:47:06.949Z,24.90
2022-11-06T00:49:33.958Z,30.00
2022-11-06T00:52:01.313Z,49.20
2022-11-06T00:54:28.276Z,38.30
2022-11-06T00:56:55.400Z,21.70
2022-11-06T00:59:22.344Z,22.30
2022-11-06T01:01:50.663Z,23.10
2022-11-06T01:04:20.746Z,19.00
2022-11-06T01:06:49.765Z,16.80
2022-11-06T01:09:19.685Z,16.80
2022-11-06T01:14:39.285Z,20.90
2022-11-06T01:17:08.926Z,26.30
2022-11-06T01:19:35.994Z,28.90
2022-11-06T01:22:03.032Z,29.50
2022-11-06T01:24:30.275Z,17.50
2022-11-06T01:27:26.100Z,30.20
2022-11-06T01:29:47.319Z,22.90
2022-11-06T01:32:14.446Z,21.40
2022-11-06T01:34:41.416Z,19.30
2022-11-06T01:37:13.987Z,21.40
2022-11-06T01:39:42.657Z,24.30
2022-11-06T01:42:11.387Z,25.60
2022-11-06T01:44:41.795Z,28.20
2022-11-06T01:47:28.292Z,76.40
2022-11-06T01:49:57.987Z,30.20
2022-11-06T01:52:25.226Z,22.60
2022-11-06T01:54:55.268Z,21.10
2022-11-06T01:57:22.281Z,23.30
2022-11-06T01:59:49.857Z,19.80
2022-11-06T02:02:17.529Z,24.60
2022-11-06T02:04:45.395Z,21.20
2022-11-06T02:07:13.234Z,29.20
2022-11-06T02:09:41.018Z,30.60
2022-11-06T02:12:16.267Z,29.50
2022-11-06T02:15:16.779Z,31.20
2022-11-06T02:18:39.057Z,21.20
2022-11-06T02:21:34.848Z,22.10
2022-11-06T02:24:32.830Z,29.70
2022-11-06T02:27:03.177Z,24.90
2022-11-06T02:29:36.216Z,27.80
2022-11-06T02:32:06.979Z,26.00
2022-11-06T02:34:33.933Z,27.10
2022-11-06T02:37:02.409Z,24.10
2022-11-06T02:39:29.574Z,26.10
2022-11-06T02:41:57.674Z,39.50
2022-11-06T02:44:26.654Z,37.10
2022-11-06T02:46:54.125Z,41.20
2022-11-06T02:49:33.383Z,29.50
2022-11-06T02:52:03.831Z,25.40
2022-11-06T02:54:31.933Z,24.30
2022-11-06T02:57:00.309Z,43.10
2022-11-06T02:59:33.495Z,46.50
2022-11-06T03:02:02.500Z,71.60
2022-11-06T03:04:37.821Z,39.60
2022-11-06T03:07:15.483Z,66.30
2022-11-06T03:09:42.471Z,56.30
2022-11-06T03:12:19.609Z,56.50
2022-11-06T03:14:53.038Z,62.10
2022-11-06T03:17:43.260Z,55.30
2022-11-06T03:20:30.679Z,59.40
2022-11-06T03:23:09.991Z,62.90
2022-11-06T03:25:43.701Z,61.70
2022-11-06T03:28:31.315Z,51.40
2022-11-06T03:31:09.418Z,58.40
2022-11-06T03:33:41.860Z,71.40
2022-11-06T03:36:15.352Z,66.70
2022-11-06T03:38:45.647Z,66.30
2022-11-06T03:41:16.119Z,63.30
2022-11-06T03:43:43.244Z,69.20
2022-11-06T03:46:13.150Z,43.40
2022-11-06T03:48:42.723Z,49.90
2022-11-06T03:51:30.693Z,52.60
2022-11-06T03:54:00.790Z,56.50
2022-11-06T03:56:40.607Z,56.70
2022-11-06T03:59:08.701Z,48.00
2022-11-06T04:01:44.601Z,58.40
2022-11-06T04:04:20.431Z,57.30
2022-11-06T04:07:17.022Z,47.80
2022-11-06T04:10:05.715Z,51.70
2022-11-06T04:12:52.507Z,61.70
2022-11-06T04:15:19.808Z,65.30
2022-11-06T04:17:46.731Z,63.90
2022-11-06T04:20:37.402Z,44.80
2022-11-06T04:23:14.325Z,45.30
2022-11-06T04:26:04.341Z,47.70
2022-11-06T04:28:43.061Z,51.60
2022-11-06T04:31:12.915Z,46.80
2022-11-06T04:33:50.483Z,45.70
2022-11-06T04:36:23.994Z,48.30
2022-11-06T04:39:06.296Z,41.60
2022-11-06T04:41:42.012Z,47.30
2022-11-06T04:44:16.562Z,45.80
2022-11-06T04:46:46.672Z,43.20
2022-11-06T04:49:13.703Z,43.80
2022-11-06T04:51:41.011Z,53.60
2022-11-06T04:54:09.187Z,51.80
2022-11-06T04:56:40.114Z,41.10
2022-11-06T04:59:13.917Z,43.50
2022-11-06T05:01:41.377Z,40.00
2022-11-06T05:04:10.203Z,42.20
2022-11-06T05:06:37.248Z,38.90
2022-11-06T05:09:04.327Z,38.40
2022-11-06T05:11:32.671Z,36.00
2022-11-06T05:14:01.913Z,30.60
2022-11-06T05:16:29.307Z,32.20
2022-11-06T05:18:56.227Z,32.40
2022-11-06T05:21:42.073Z,28.80
2022-11-06T05:24:10.383Z,33.20
2022-11-06T05:26:37.686Z,30.90
2022-11-06T05:29:04.611Z,31.10
2022-11-06T05:31:32.940Z,23.90
2022-11-06T05:34:03.122Z,24.40
2022-11-06T05:36:30.517Z,28.10
2022-11-06T05:39:01.453Z,29.20
2022-11-06T05:41:29.017Z,28.10
2022-11-06T05:43:57.624Z,27.50
2022-11-06T05:46:47.030Z,28.20
2022-11-06T05:49:12.890Z,22.80
2022-11-06T05:51:40.031Z,25.60
2022-11-06T05:54:07.064Z,25.80
2022-11-06T05:56:34.022Z,25.80
2022-11-06T05:59:01.583Z,26.10
2022-11-06T06:01:28.880Z,28.20
2022-11-06T06:03:55.843Z,30.30
2022-11-06T06:06:22.796Z,28.50
2022-11-06T06:08:51.667Z,39.60
2022-11-06T06:11:19.876Z,61.60
2022-11-06T06:13:48.156Z,93.10
2022-11-06T06:16:16.159Z,66.90
2022-11-06T06:18:43.091Z,64.80
2022-11-06T06:21:10.940Z,89.90
2022-11-06T06:23:37.867Z,63.30
2022-11-06T06:26:05.832Z,241.10
2022-11-06T06:28:33.123Z,224.30
2022-11-06T06:31:04.141Z,109.00
2022-11-06T06:33:31.127Z,148.80
2022-11-06T06:36:03.278Z,84.40
2022-11-06T06:38:31.014Z,80.60
2022-11-06T06:41:05.562Z,41.60
2022-11-06T06:43:32.968Z,43.40
2022-11-06T06:46:00.883Z,39.00
2022-11-06T06:48:28.226Z,37.70
2022-11-06T06:51:00.692Z,42.90
2022-11-06T06:53:28.057Z,36.80
2022-11-06T06:55:58.586Z,29.00
2022-11-06T06:58:25.970Z,30.60
2022-11-06T07:00:55.291Z,29.20
2022-11-06T07:03:22.580Z,39.50
2022-11-06T07:05:50.252Z,41.40
2022-11-06T07:08:17.482Z,45.10
2022-11-06T07:10:44.433Z,29.70
2022-11-06T07:13:12.673Z,33.10
2022-11-06T07:15:41.923Z,34.30
2022-11-06T07:18:10.480Z,33.30
2022-11-06T07:20:39.821Z,33.20
2022-11-06T07:23:07.398Z,35.90
2022-11-06T07:25:34.802Z,37.50
2022-11-06T07:28:05.942Z,29.00
2022-11-06T07:30:33.925Z,26.80
2022-11-06T07:33:02.298Z,29.00
2022-11-06T07:35:29.565Z,31.40
2022-11-06T07:37:57.032Z,27.40
2022-11-06T07:40:24.003Z,33.30
2022-11-06T07:42:51.913Z,31.10
2022-11-06T07:45:19.514Z,23.80
2022-11-06T07:47:48.117Z,30.70
2022-11-06T07:50:15.215Z,36.00
2022-11-06T07:52:42.681Z,32.40
2022-11-06T07:55:09.686Z,32.20
2022-11-06T07:57:37.482Z,38.30
2022-11-06T08:00:05.881Z,36.70
2022-11-06T08:02:40.450Z,26.20
2022-11-06T08:05:07.756Z,28.40
2022-11-06T08:07:34.878Z,29.20
2022-11-06T08:10:02.770Z,37.80
2022-11-06T08:12:30.314Z,35.90
2022-11-06T08:14:58.108Z,35.50
2022-11-06T08:17:25.326Z,36.90
2022-11-06T08:19:52.300Z,42.60
2022-11-06T08:22:19.441Z,30.80
2022-11-06T08:24:46.584Z,34.20
2022-11-06T08:27:15.826Z,38.40
2022-11-06T08:29:43.595Z,39.40
2022-11-06T08:32:10.783Z,41.80
2022-11-06T08:34:39.217Z,43.50
2022-11-06T08:37:10.646Z,45.70
2022-11-06T08:39:38.132Z,37.60
2022-11-06T08:42:05.969Z,36.70
2022-11-06T08:44:33.848Z,38.80
2022-11-06T08:47:00.821Z,38.80
2022-11-06T08:49:28.722Z,43.00
2022-11-06T08:51:55.831Z,46.60
2022-11-06T08:54:23.851Z,46.50
2022-11-06T08:56:50.886Z,34.10
2022-11-06T08:59:18.426Z,35.80
2022-11-06T09:01:45.467Z,38.50
2022-11-06T09:04:12.625Z,42.40
2022-11-06T09:06:40.039Z,39.50
2022-11-06T09:09:06.943Z,40.40
2022-11-06T09:11:34.376Z,43.40
2022-11-06T09:14:01.484Z,36.40
2022-11-06T09:16:28.521Z,39.10
2022-11-06T09:18:58.331Z,39.50
2022-11-06T09:21:25.579Z,35.40
2022-11-06T09:23:52.954Z,41.10
2022-11-06T09:26:19.882Z,41.40
2022-11-06T09:28:47.110Z,37.30
2022-11-06T09:31:16.024Z,30.90
2022-11-06T09:33:43.841Z,31.80
2022-11-06T09:36:11.272Z,36.30
2022-11-06T09:38:39.705Z,33.70
2022-11-06T09:41:06.675Z,38.40
2022-11-06T09:44:05.878Z,35.40
2022-11-06T09:46:37.701Z,35.40
2022-11-06T09:49:25.752Z,26.70
2022-11-06T09:51:52.715Z,30.50
2022-11-06T09:54:26.556Z,33.00
2022-11-06T09:56:56.191Z,32.40
2022-11-06T09:59:23.128Z,31.00
2022-11-06T10:01:55.383Z,35.50
2022-11-06T10:04:34.894Z,35.70
2022-11-06T10:07:01.944Z,27.30
2022-11-06T10:09:29.492Z,29.10
2022-11-06T10:12:00.784Z,29.30
2022-11-06T10:14:40.575Z,30.50
2022-11-06T10:17:26.562Z,32.70
2022-11-06T10:20:00.959Z,34.50
2022-11-06T10:22:39.099Z,30.60
2022-11-06T10:25:23.047Z,31.60
2022-11-06T10:27:50.800Z,24.80
2022-11-06T10:30:17.731Z,26.10
2022-11-06T10:32:45.159Z,30.10
2022-11-06T10:35:22.217Z,29.40
2022-11-06T10:38:14.199Z,27.70
2022-11-06T10:40:43.900Z,28.80
2022-11-06T10:43:35.676Z,24.90
2022-11-06T10:46:20.852Z,24.90
2022-11-06T10:48:52.186Z,22.70
2022-11-06T10:51:47.086Z,26.00
2022-11-06T10:54:32.916Z,28.20
2022-11-06T10:57:18.368Z,25.50
2022-11-06T10:59:45.445Z,28.50
2022-11-06T11:02:20.763Z,24.50
2022-11-06T11:04:47.786Z,25.00
2022-11-06T11:07:21.326Z,26.00
2022-11-06T11:09:52.008Z,25.70
2022-11-06T11:12:29.217Z,28.60
2022-11-06T11:15:12.955Z,31.70
2022-11-06T11:17:40.806Z,31.40
2022-11-06T11:20:31.593Z,23.10
2022-11-06T11:23:25.962Z,23.40
2022-11-06T11:25:55.053Z,24.00
2022-11-06T11:28:32.023Z,26.60
2022-11-06T11:30:59.592Z,26.10
2022-11-06T11:33:26.984Z,28.40
2022-11-06T11:35:54.278Z,32.00
2022-11-06T11:38:22.790Z,21.70
2022-11-06T11:40:51.566Z,26.10
2022-11-06T11:43:28.635Z,37.60
2022-11-06T11:46:10.026Z,38.00
2022-11-06T11:48:55.837Z,35.00
2022-11-06T11:51:34.165Z,41.10
2022-11-06T11:54:06.087Z,40.40
2022-11-06T11:57:03.134Z,26.50
2022-11-06T11:59:39.474Z,27.90
2022-11-06T12:02:43.021Z,25.00
2022-11-06T12:05:14.967Z,23.60
2022-11-06T12:07:48.019Z,26.90
2022-11-06T12:10:25.185Z,28.30
2022-11-06T12:12:52.769Z,28.90
2022-11-06T12:15:21.473Z,22.20
2022-11-06T12:17:59.793Z,24.10
2022-11-06T12:20:31.335Z,23.60
2022-11-06T12:22:58.692Z,24.90
2022-11-06T12:25:34.432Z,28.30
2022-11-06T12:28:02.027Z,26.80
2022-11-06T12:30:29.329Z,26.70
2022-11-06T12:32:58.986Z,26.40
2022-11-06T12:36:00.059Z,25.70
2022-11-06T12:41:15.565Z,24.90
2022-11-06T12:43:46.735Z,23.20
2022-11-06T12:46:20.279Z,24.60
2022-11-06T12:49:28.980Z,24.30
2022-11-06T12:52:18.105Z,21.90
2022-11-06T12:54:46.124Z,22.00
2022-11-06T12:57:51.210Z,24.30
2022-11-06T13:00:24.963Z,26.00
2022-11-06T13:03:19.350Z,27.20
2022-11-06T13:05:52.403Z,23.50
2022-11-06T13:08:47.344Z,23.00
2022-11-06T13:11:23.378Z,20.50
2022-11-06T13:13:59.552Z,20.90
2022-11-06T13:16:43.863Z,21.60
2022-11-06T13:19:26.347Z,22.60
2022-11-06T13:22:00.484Z,24.40
2022-11-06T13:24:46.121Z,24.20
2022-11-06T13:27:36.215Z,23.40
2022-11-06T13:30:34.139Z,24.10
2022-11-06T13:33:10.333Z,18.00
2022-11-06T13:35:41.079Z,23.40
2022-11-06T13:38:09.936Z,24.70
2022-11-06T13:40:40.376Z,26.60
2022-11-06T13:43:10.402Z,24.00
2022-11-06T13:45:55.686Z,29.00
2022-11-06T13:48:26.724Z,29.70
2022-11-06T13:51:00.465Z,24.60
2022-11-06T13:53:34.932Z,24.20
2022-11-06T13:56:23.717Z,26.80
2022-11-06T13:58:55.668Z,25.50
2022-11-06T14:01:27.256Z,29.80
2022-11-06T14:04:13.411Z,29.40
2022-11-06T14:06:41.585Z,29.20
2022-11-06T14:09:18.976Z,23.70
2022-11-06T14:11:50.971Z,24.50
2022-11-06T14:14:20.930Z,29.80
2022-11-06T14:17:11.256Z,28.20
2022-11-06T14:19:41.296Z,30.70
2022-11-06T14:22:38.550Z,28.10
2022-11-06T14:25:27.572Z,30.00
2022-11-06T14:27:55.633Z,23.00
2022-11-06T14:31:11.069Z,28.50
2022-11-06T14:33:43.238Z,30.10
2022-11-06T14:36:33.284Z,23.40
2022-11-06T14:39:02.374Z,30.50
2022-11-06T14:41:36.486Z,36.40
2022-11-06T14:44:20.813Z,60.90
2022-11-06T14:46:52.941Z,28.60
2022-11-06T14:49:44.013Z,24.60
2022-11-06T14:52:12.751Z,41.50
2022-11-06T14:54:41.677Z,73.40
2022-11-06T14:57:09.627Z,109.60
2022-11-06T14:59:38.800Z,118.00
2022-11-06T15:02:26.376Z,51.90
2022-11-06T15:05:05.899Z,36.50
2022-11-06T15:08:03.361Z,33.80
2022-11-06T15:10:42.699Z,34.90
2022-11-06T15:13:16.596Z,49.00
2022-11-06T15:15:48.874Z,65.80
2022-11-06T15:18:22.995Z,63.50
2022-11-06T15:20:56.953Z,73.70
2022-11-06T15:23:29.482Z,42.20
2022-11-06T15:26:29.561Z,45.10
2022-11-06T15:28:59.759Z,39.60
2022-11-06T15:31:26.835Z,238.40
2022-11-06T15:34:18.284Z,173.80
2022-11-06T15:36:47.861Z,198.20
2022-11-06T15:39:38.409Z,58.00
2022-11-06T15:42:09.423Z,50.60
2022-11-06T15:44:40.738Z,109.50
2022-11-06T15:47:24.919Z,104.00
2022-11-06T15:50:16.842Z,121.60
2022-11-06T15:52:44.427Z,60.30
2022-11-06T15:55:35.423Z,38.80
2022-11-06T15:58:24.679Z,110.90
2022-11-06T16:00:54.220Z,73.80
2022-11-06T16:03:22.837Z,43.40
2022-11-06T16:05:50.284Z,164.80
2022-11-06T16:08:18.245Z,60.10
2022-11-06T16:10:45.764Z,34.40
2022-11-06T16:13:13.935Z,29.80
2022-11-06T16:15:44.947Z,23.30
2022-11-06T16:18:25.291Z,25.10
2022-11-06T16:21:16.585Z,27.50
2022-11-06T16:26:35.787Z,23.40
2022-11-06T16:29:24.356Z,23.30
2022-11-06T16:32:07.316Z,40.00
2022-11-06T16:34:39.978Z,132.90
2022-11-06T16:37:22.023Z,41.10
2022-11-06T16:39:53.090Z,74.60
2022-11-06T16:42:20.351Z,31.30
2022-11-06T16:44:47.840Z,49.50
2022-11-06T16:47:16.961Z,39.20
2022-11-06T16:49:50.260Z,57.90
2022-11-06T16:52:34.420Z,34.30
2022-11-06T16:55:09.454Z,72.40
2022-11-06T16:57:49.143Z,48.40
2022-11-06T17:00:31.829Z,83.20
2022-11-06T17:03:00.622Z,54.30
2022-11-06T17:05:33.616Z,110.70
2022-11-06T17:08:08.375Z,289.40
2022-11-06T17:10:40.029Z,123.40
2022-11-06T17:13:16.336Z,237.00
2022-11-06T17:15:45.716Z,166.70
2022-11-06T17:18:16.168Z,109.00
2022-11-06T17:20:46.404Z,184.80
2022-11-06T17:23:16.147Z,235.70
2022-11-06T17:25:43.609Z,215.30
2022-11-06T17:28:10.854Z,77.80
2022-11-06T17:30:38.203Z,127.80
2022-11-06T17:33:05.608Z,75.40
2022-11-06T17:35:32.871Z,131.40
2022-11-06T17:38:07.037Z,78.30
2022-11-06T17:40:34.776Z,108.60
2022-11-06T17:43:01.982Z,87.80
2022-11-06T17:45:29.047Z,27.00
2022-11-06T17:47:56.059Z,52.70
2022-11-06T17:50:23.187Z,70.90
2022-11-06T17:52:50.099Z,54.10
2022-11-06T17:55:17.193Z,50.20
2022-11-06T17:57:44.464Z,49.00
2022-11-06T18:00:13.067Z,33.30
2022-11-06T18:03:00.340Z,59.40
2022-11-06T18:05:28.458Z,39.20
2022-11-06T18:07:55.716Z,42.90
2022-11-06T18:10:27.465Z,46.70
2022-11-06T18:12:58.484Z,27.90
2022-11-06T18:15:25.930Z,32.60
2022-11-06T18:17:53.067Z,29.70
2022-11-06T18:20:20.418Z,32.50
2022-11-06T18:22:47.369Z,39.90
2022-11-06T18:25:16.267Z,30.80
2022-11-06T18:27:43.331Z,23.40
2022-11-06T18:30:11.855Z,20.90
2022-11-06T18:32:39.101Z,28.70
2022-11-06T18:35:07.209Z,55.60
2022-11-06T18:37:34.537Z,35.40
2022-11-06T18:40:02.626Z,36.50
2022-11-06T18:42:29.904Z,26.10
2022-11-06T18:44:56.964Z,33.00
2022-11-06T18:47:24.369Z,39.00
2022-11-06T18:49:51.508Z,36.90
2022-11-06T18:52:38.016Z,32.10
2022-11-06T18:55:06.417Z,32.60
2022-11-06T18:57:33.752Z,28.60
2022-11-06T19:00:00.728Z,24.80
2022-11-06T19:02:27.947Z,34.50
2022-11-06T19:04:56.118Z,46.30
2022-11-06T19:07:23.219Z,45.00
2022-11-06T19:09:50.514Z,45.90
2022-11-06T19:12:22.377Z,41.90
2022-11-06T19:14:50.604Z,60.40
2022-11-06T19:17:21.032Z,60.60
2022-11-06T19:19:48.861Z,51.50
2022-11-06T19:22:15.858Z,60.10
2022-11-06T19:24:43.996Z,42.20
2022-11-06T19:27:10.913Z,33.80
2022-11-06T19:29:38.035Z,28.60
2022-11-06T19:32:05.548Z,31.40
2022-11-06T19:34:38.871Z,31.80
2022-11-06T19:37:06.712Z,27.60
2022-11-06T19:39:33.847Z,31.30
2022-11-06T19:42:01.145Z,25.10
2022-11-06T19:44:28.158Z,29.50
2022-11-06T19:46:55.280Z,28.60
2022-11-06T19:49:22.956Z,30.30
2022-11-06T19:51:50.266Z,30.90
2022-11-06T19:54:17.726Z,40.40
2022-11-06T19:57:29.664Z,37.30
2022-11-06T19:59:34.701Z,30.90
2022-11-06T20:02:01.923Z,27.00
2022-11-06T20:04:29.387Z,27.70
2022-11-06T20:06:56.292Z,27.90
2022-11-06T20:09:23.522Z,30.90
2022-11-06T20:11:51.889Z,25.70
2022-11-06T20:14:21.940Z,28.10
2022-11-06T20:16:49.749Z,32.20
2022-11-06T20:19:20.017Z,29.00
2022-11-06T20:21:47.957Z,35.50
2022-11-06T20:24:15.076Z,37.30
2022-11-06T20:26:42.035Z,28.80
2022-11-06T20:29:09.465Z,28.90
2022-11-06T20:31:36.485Z,49.90
2022-11-06T20:34:04.243Z,36.60
2022-11-06T20:36:31.484Z,76.30
2022-11-06T20:38:59.465Z,32.00
2022-11-06T20:41:26.794Z,26.30
2022-11-06T20:43:54.365Z,29.50
2022-11-06T20:46:21.755Z,52.30
2022-11-06T20:48:49.758Z,40.60
2022-11-06T20:51:26.849Z,28.50
2022-11-06T20:53:53.812Z,38.20
2022-11-06T20:56:22.447Z,26.00
2022-11-06T20:58:50.444Z,71.90
2022-11-06T21:01:20.330Z,56.30
2022-11-06T21:03:49.650Z,30.20
2022-11-06T21:06:17.471Z,27.00
2022-11-06T21:08:44.889Z,31.60
2022-11-06T21:11:13.696Z,24.60
2022-11-06T21:13:41.986Z,25.20
2022-11-06T21:16:12.241Z,23.50
2022-11-06T21:18:41.661Z,27.80
2022-11-06T21:21:11.653Z,30.50
2022-11-06T21:23:38.606Z,33.80
2022-11-06T21:26:12.213Z,22.80
2022-11-06T21:28:39.777Z,27.40
2022-11-06T21:31:11.109Z,24.80
2022-11-06T21:33:42.078Z,23.70
2022-11-06T21:36:19.619Z,36.00
2022-11-06T21:38:46.800Z,30.50
2022-11-06T21:41:17.824Z,29.80
2022-11-06T21:43:45.099Z,26.10
2022-11-06T21:46:12.518Z,28.10
2022-11-06T21:48:46.401Z,23.90
2022-11-06T21:51:19.640Z,26.20
2022-11-06T21:54:05.211Z,24.00
2022-11-06T21:56:32.938Z,22.20
2022-11-06T21:59:00.860Z,24.20
2022-11-06T22:01:28.845Z,29.00
2022-11-06T22:03:55.889Z,29.30
2022-11-06T22:06:25.184Z,34.00
2022-11-06T22:08:53.280Z,23.60
2022-11-06T22:11:26.500Z,37.70
2022-11-06T22:13:54.333Z,29.50
2022-11-06T22:16:25.123Z,22.50
2022-11-06T22:18:52.681Z,24.00
2022-11-06T22:21:24.503Z,28.40
2022-11-06T22:23:51.938Z,38.40
2022-11-06T22:26:20.732Z,30.80
2022-11-06T22:28:48.641Z,34.40
2022-11-06T22:31:15.711Z,22.90
2022-11-06T22:33:43.733Z,22.00
2022-11-06T22:36:13.332Z,28.30
2022-11-06T22:38:44.899Z,21.40
2022-11-06T22:41:13.888Z,23.40
2022-11-06T22:43:41.710Z,20.90
2022-11-06T22:46:10.049Z,22.40
2022-11-06T22:48:37.980Z,22.70
2022-11-06T22:51:06.113Z,25.50
2022-11-06T22:53:33.900Z,27.00
2022-11-06T22:56:06.420Z,23.00
2022-11-06T22:58:33.612Z,23.80
2022-11-06T23:01:00.693Z,22.40
2022-11-06T23:03:28.738Z,21.60
2022-11-06T23:05:59.924Z,24.00
2022-11-06T23:08:27.820Z,27.20
2022-11-06T23:10:55.393Z,27.90
2022-11-06T23:13:23.135Z,26.70
2022-11-06T23:15:50.919Z,26.10
2022-11-06T23:18:17.865Z,23.50
2022-11-06T23:20:48.480Z,30.50
2022-11-06T23:23:15.835Z,30.90
2022-11-06T23:25:44.213Z,26.40
2022-11-06T23:28:11.718Z,23.00
2022-11-06T23:30:38.678Z,27.70
2022-11-06T23:33:06.733Z,19.30
2022-11-06T23:35:33.895Z,24.30
2022-11-06T23:38:01.108Z,27.40
2022-11-06T23:40:28.085Z,30.10
2022-11-06T23:42:57.109Z,21.60
2022-11-06T23:45:42.622Z,20.80
2022-11-06T23:48:13.550Z,27.30
2022-11-06T23:50:41.383Z,36.20
2022-11-06T23:53:08.371Z,62.30
2022-11-06T23:55:35.362Z,41.80
2022-11-06T23:58:02.354Z,24.20
